createdAt,value
2022-09-16T00:01:00.281Z,53.39
2022-09-16T00:03:28.190Z,53.10
2022-09-16T00:05:58.566Z,53.49
2022-09-16T00:08:25.995Z,53.43
2022-09-16T00:10:53.336Z,53.55
2022-09-16T00:13:20.629Z,53.76
2022-09-16T00:15:51.248Z,53.78
2022-09-16T00:18:20.630Z,53.50
2022-09-16T00:20:50.900Z,52.96
2022-09-16T00:23:19.833Z,53.21
2022-09-16T00:25:55.265Z,53.54
2022-09-16T00:28:23.891Z,54.07
2022-09-16T00:30:51.819Z,54.43
2022-09-16T00:33:20.682Z,54.46
2022-09-16T00:35:48.467Z,54.39
2022-09-16T00:38:16.503Z,54.25
2022-09-16T00:40:49.242Z,54.42
2022-09-16T00:43:19.459Z,54.03
2022-09-16T00:45:55.825Z,54.29
2022-09-16T00:48:26.618Z,54.00
2022-09-16T00:51:06.053Z,54.25
2022-09-16T00:53:43.103Z,54.44
2022-09-16T00:56:14.433Z,54.54
2022-09-16T00:59:12.483Z,54.37
2022-09-16T01:01:43.419Z,54.42
2022-09-16T01:04:19.077Z,54.72
2022-09-16T01:06:46.652Z,54.58
2022-09-16T01:09:14.138Z,55.02
2022-09-16T01:11:41.497Z,54.71
2022-09-16T01:14:27.740Z,54.74
2022-09-16T01:17:06.968Z,54.73
2022-09-16T01:20:00.352Z,54.66
2022-09-16T01:23:02.749Z,55.26
2022-09-16T01:25:48.242Z,55.29
2022-09-16T01:28:53.115Z,55.01
2022-09-16T01:31:55.764Z,55.00
2022-09-16T01:34:36.253Z,55.42
2022-09-16T01:37:07.233Z,55.03
2022-09-16T01:39:48.723Z,55.21
2022-09-16T01:42:24.358Z,55.42
2022-09-16T01:45:18.097Z,55.29
2022-09-16T01:48:04.250Z,55.38
2022-09-16T01:50:40.159Z,55.60
2022-09-16T01:53:25.692Z,55.16
2022-09-16T01:56:15.614Z,54.90
2022-09-16T01:59:03.304Z,54.65
2022-09-16T02:01:47.981Z,54.51
2022-09-16T02:04:30.359Z,54.51
2022-09-16T02:07:01.370Z,54.18
2022-09-16T02:09:39.532Z,54.01
2022-09-16T02:12:16.828Z,53.97
2022-09-16T02:14:47.715Z,53.73
2022-09-16T02:17:23.559Z,53.60
2022-09-16T02:19:58.627Z,53.67
2022-09-16T02:22:32.586Z,54.22
2022-09-16T02:25:02.783Z,53.66
2022-09-16T02:27:32.144Z,53.73
2022-09-16T02:30:06.667Z,53.63
2022-09-16T02:32:37.798Z,53.40
2022-09-16T02:35:07.794Z,53.22
2022-09-16T02:37:46.400Z,53.08
2022-09-16T02:40:23.042Z,53.27
2022-09-16T02:42:50.643Z,53.25
2022-09-16T02:45:18.135Z,53.14
2022-09-16T02:47:48.186Z,53.27
2022-09-16T02:50:31.114Z,53.00
2022-09-16T02:53:07.589Z,52.76
2022-09-16T02:55:46.139Z,53.27
2022-09-16T02:58:13.576Z,53.18
2022-09-16T03:00:47.616Z,52.71
2022-09-16T03:03:15.466Z,52.89
2022-09-16T03:06:07.268Z,52.52
2022-09-16T03:08:36.549Z,52.68
2022-09-16T03:11:16.679Z,52.59
2022-09-16T03:13:55.358Z,52.26
2022-09-16T03:16:46.073Z,52.51
2022-09-16T03:19:16.649Z,51.65
2022-09-16T03:22:34.046Z,51.53
2022-09-16T03:25:11.185Z,51.64
2022-09-16T03:28:00.038Z,52.19
2022-09-16T03:30:30.805Z,50.47
2022-09-16T03:33:06.441Z,50.33
2022-09-16T03:35:33.704Z,50.36
2022-09-16T03:38:02.665Z,50.54
2022-09-16T03:40:33.084Z,50.90
2022-09-16T03:43:00.520Z,50.99
2022-09-16T03:45:27.798Z,51.03
2022-09-16T03:47:55.108Z,50.85
2022-09-16T03:50:22.735Z,50.73
2022-09-16T03:52:50.145Z,50.68
2022-09-16T03:55:17.587Z,50.99
2022-09-16T03:57:44.974Z,51.33
2022-09-16T04:00:16.312Z,51.45
2022-09-16T04:02:44.154Z,51.43
2022-09-16T04:05:11.812Z,51.26
2022-09-16T04:07:39.344Z,51.69
2022-09-16T04:10:07.509Z,51.67
2022-09-16T04:12:34.909Z,51.66
2022-09-16T04:15:16.436Z,51.66
2022-09-16T04:17:43.962Z,51.60
2022-09-16T04:20:11.287Z,51.65
2022-09-16T04:22:38.600Z,51.45
2022-09-16T04:25:06.395Z,51.38
2022-09-16T04:27:33.779Z,51.32
2022-09-16T04:30:01.180Z,51.70
2022-09-16T04:32:34.437Z,51.82
2022-09-16T04:35:01.741Z,52.12
2022-09-16T04:37:31.625Z,51.67
2022-09-16T04:40:07.319Z,52.17
2022-09-16T04:42:34.801Z,51.91
2022-09-16T04:45:02.219Z,52.22
2022-09-16T04:47:29.836Z,51.96
2022-09-16T04:49:57.324Z,52.42
2022-09-16T04:52:24.623Z,52.58
2022-09-16T04:54:51.911Z,52.39
2022-09-16T04:57:19.202Z,52.71
2022-09-16T04:59:46.611Z,52.42
2022-09-16T05:02:50.120Z,52.76
2022-09-16T05:05:17.657Z,52.57
2022-09-16T05:07:44.986Z,52.70
2022-09-16T05:10:12.608Z,53.11
2022-09-16T05:12:39.942Z,53.35
2022-09-16T05:15:08.023Z,53.26
2022-09-16T05:17:50.921Z,52.86
2022-09-16T05:20:19.039Z,53.63
2022-09-16T05:22:48.737Z,53.50
2022-09-16T05:25:16.168Z,53.57
2022-09-16T05:27:43.562Z,53.33
2022-09-16T05:30:11.584Z,53.22
2022-09-16T05:32:39.099Z,52.84
2022-09-16T05:35:18.338Z,52.17
2022-09-16T05:37:45.697Z,51.96
2022-09-16T05:40:13.066Z,51.41
2022-09-16T05:42:43.426Z,51.71
2022-09-16T05:45:10.990Z,51.29
2022-09-16T05:47:38.499Z,51.30
2022-09-16T05:50:06.383Z,51.23
2022-09-16T05:52:33.732Z,51.51
2022-09-16T05:55:01.042Z,51.86
2022-09-16T05:57:29.205Z,51.25
2022-09-16T06:00:06.755Z,51.31
2022-09-16T06:02:37.354Z,50.83
2022-09-16T06:05:05.005Z,50.94
2022-09-16T06:07:32.378Z,50.49
2022-09-16T06:09:59.958Z,51.28
2022-09-16T06:12:27.383Z,51.18
2022-09-16T06:14:54.710Z,50.81
2022-09-16T06:17:22.141Z,50.43
2022-09-16T06:19:49.483Z,50.40
2022-09-16T06:22:17.382Z,50.17
2022-09-16T06:24:49.504Z,49.68
2022-09-16T06:27:21.222Z,49.00
2022-09-16T06:29:48.838Z,48.16
2022-09-16T06:32:16.208Z,46.83
2022-09-16T06:34:43.527Z,46.56
2022-09-16T06:37:13.569Z,46.44
2022-09-16T06:39:40.848Z,46.64
2022-09-16T06:42:09.348Z,46.42
2022-09-16T06:44:41.638Z,46.06
2022-09-16T06:47:09.000Z,45.73
2022-09-16T06:49:36.483Z,45.37
2022-09-16T06:52:03.928Z,44.98
2022-09-16T06:54:32.128Z,44.75
2022-09-16T06:56:59.537Z,44.46
2022-09-16T06:59:26.782Z,44.70
2022-09-16T07:01:54.856Z,44.24
2022-09-16T07:04:25.039Z,43.56
2022-09-16T07:09:40.349Z,42.25
2022-09-16T07:12:08.573Z,42.36
2022-09-16T07:14:36.173Z,42.94
2022-09-16T07:17:03.784Z,42.32
2022-09-16T07:19:31.159Z,43.04
2022-09-16T07:21:58.594Z,43.82
2022-09-16T07:24:26.069Z,45.21
2022-09-16T07:26:53.379Z,46.73
2022-09-16T07:29:21.188Z,47.51
2022-09-16T07:31:48.475Z,48.75
2022-09-16T07:34:15.939Z,50.06
2022-09-16T07:36:49.078Z,50.51
2022-09-16T07:39:18.252Z,51.87
2022-09-16T07:41:48.765Z,52.19
2022-09-16T07:44:19.753Z,51.41
2022-09-16T07:46:48.579Z,50.77
2022-09-16T07:49:17.377Z,49.43
2022-09-16T07:51:45.091Z,48.62
2022-09-16T07:54:15.776Z,48.44
2022-09-16T07:56:44.384Z,48.50
2022-09-16T07:59:18.463Z,48.26
2022-09-16T08:01:46.938Z,47.92
2022-09-16T08:04:14.414Z,47.99
2022-09-16T08:06:42.053Z,48.00
2022-09-16T08:09:36.780Z,48.08
2022-09-16T08:11:57.123Z,47.84
2022-09-16T08:14:25.613Z,46.90
2022-09-16T08:16:53.018Z,44.31
2022-09-16T08:19:22.630Z,43.67
2022-09-16T08:21:50.353Z,43.15
2022-09-16T08:24:17.658Z,43.11
2022-09-16T08:26:45.085Z,43.08
2022-09-16T08:29:12.699Z,42.69
2022-09-16T08:31:40.408Z,42.63
2022-09-16T08:34:10.120Z,41.71
2022-09-16T08:36:38.896Z,40.82
2022-09-16T08:39:09.889Z,41.86
2022-09-16T08:42:02.048Z,41.21
2022-09-16T08:45:00.586Z,43.06
2022-09-16T08:47:57.930Z,43.51
2022-09-16T08:50:37.946Z,44.16
2022-09-16T08:53:13.107Z,42.95
2022-09-16T08:55:48.699Z,42.59
2022-09-16T08:58:46.966Z,41.88
2022-09-16T09:01:41.936Z,41.53
2022-09-16T09:04:09.591Z,42.52
2022-09-16T09:06:59.086Z,43.73
2022-09-16T09:09:41.681Z,41.73
2022-09-16T09:12:22.072Z,40.96
2022-09-16T09:15:32.821Z,40.03
2022-09-16T09:18:30.814Z,40.24
2022-09-16T09:20:58.080Z,41.51
2022-09-16T09:23:43.445Z,42.96
2022-09-16T09:26:25.922Z,43.04
2022-09-16T09:29:17.899Z,43.69
2022-09-16T09:31:51.218Z,43.71
2022-09-16T09:34:52.459Z,44.45
2022-09-16T09:37:58.055Z,44.56
2022-09-16T09:40:46.602Z,46.00
2022-09-16T09:43:53.705Z,45.16
2022-09-16T09:46:29.260Z,47.05
2022-09-16T09:49:39.408Z,48.13
2022-09-16T09:52:42.761Z,47.78
2022-09-16T09:55:20.400Z,50.88
2022-09-16T09:58:06.035Z,52.01
2022-09-16T10:00:33.440Z,52.04
2022-09-16T10:03:14.876Z,53.12
2022-09-16T10:05:42.374Z,53.13
2022-09-16T10:08:15.822Z,53.30
2022-09-16T10:10:50.856Z,54.49
2022-09-16T10:13:19.689Z,55.11
2022-09-16T10:15:51.970Z,57.90
2022-09-16T10:18:26.546Z,59.13
2022-09-16T10:21:13.145Z,59.80
2022-09-16T10:23:41.017Z,60.75
2022-09-16T10:26:20.395Z,61.11
2022-09-16T10:29:00.300Z,60.37
2022-09-16T10:31:37.290Z,60.40
2022-09-16T10:34:14.380Z,58.75
2022-09-16T10:36:41.746Z,56.77
2022-09-16T10:39:23.395Z,53.54
2022-09-16T10:41:50.845Z,52.03
2022-09-16T10:44:22.195Z,51.10
2022-09-16T10:46:53.898Z,51.94
2022-09-16T10:49:31.071Z,53.29
2022-09-16T10:52:09.435Z,54.84
2022-09-16T10:54:38.211Z,56.55
2022-09-16T10:57:20.261Z,56.96
2022-09-16T11:00:05.404Z,55.15
2022-09-16T11:03:03.765Z,55.63
2022-09-16T11:05:45.519Z,58.11
2022-09-16T11:08:18.820Z,57.83
2022-09-16T11:11:11.831Z,56.91
2022-09-16T11:13:42.230Z,58.40
2022-09-16T11:16:34.890Z,55.82
2022-09-16T11:19:25.381Z,55.74
2022-09-16T11:22:17.207Z,57.11
2022-09-16T11:25:03.394Z,56.77
2022-09-16T11:27:37.036Z,56.22
2022-09-16T11:30:14.641Z,58.01
2022-09-16T11:33:03.642Z,57.04
2022-09-16T11:36:01.460Z,53.77
2022-09-16T11:38:55.973Z,52.23
2022-09-16T11:41:59.894Z,53.97
2022-09-16T11:44:48.939Z,56.72
2022-09-16T11:47:40.486Z,55.44
2022-09-16T11:50:18.849Z,55.04
2022-09-16T11:53:05.999Z,55.77
2022-09-16T11:56:06.250Z,54.86
2022-09-16T11:58:49.264Z,55.96
2022-09-16T12:01:35.594Z,55.85
2022-09-16T12:04:19.880Z,53.60
2022-09-16T12:07:07.164Z,52.99
2022-09-16T12:09:40.905Z,53.10
2022-09-16T12:12:16.763Z,52.66
2022-09-16T12:14:53.846Z,51.14
2022-09-16T12:17:25.244Z,51.02
2022-09-16T12:19:59.830Z,50.05
2022-09-16T12:22:34.223Z,51.55
2022-09-16T12:25:09.765Z,53.92
2022-09-16T12:27:45.388Z,55.13
2022-09-16T12:30:20.176Z,55.31
2022-09-16T12:33:22.557Z,54.87
2022-09-16T12:36:13.029Z,56.00
2022-09-16T12:38:41.025Z,55.23
2022-09-16T12:41:13.552Z,55.03
2022-09-16T12:43:50.123Z,54.54
2022-09-16T12:46:49.747Z,54.28
2022-09-16T12:49:54.946Z,54.67
2022-09-16T12:52:40.028Z,54.63
2022-09-16T12:55:31.812Z,55.12
2022-09-16T12:58:13.696Z,55.34
2022-09-16T13:00:56.535Z,54.72
2022-09-16T13:03:28.114Z,54.65
2022-09-16T13:05:59.073Z,54.56
2022-09-16T13:08:32.968Z,54.56
2022-09-16T13:12:16.152Z,53.92
2022-09-16T13:13:56.747Z,55.45
2022-09-16T13:16:37.282Z,55.10
2022-09-16T13:19:34.472Z,54.56
2022-09-16T13:22:17.148Z,53.96
2022-09-16T13:24:53.600Z,53.97
2022-09-16T13:27:26.107Z,54.57
2022-09-16T13:30:19.283Z,54.55
2022-09-16T13:33:16.723Z,54.42
2022-09-16T13:36:11.459Z,54.37
2022-09-16T13:38:47.924Z,54.99
2022-09-16T13:41:28.364Z,55.24
2022-09-16T13:43:55.895Z,56.55
2022-09-16T13:46:29.824Z,57.04
2022-09-16T13:49:12.224Z,57.58
2022-09-16T13:51:49.242Z,57.25
2022-09-16T13:54:28.724Z,57.83
2022-09-16T13:57:17.232Z,56.21
2022-09-16T13:59:47.565Z,55.74
2022-09-16T14:02:31.242Z,56.47
2022-09-16T14:05:43.259Z,57.44
2022-09-16T14:08:12.210Z,57.24
2022-09-16T14:11:04.514Z,56.83
2022-09-16T14:14:06.134Z,56.56
2022-09-16T14:16:43.028Z,55.90
2022-09-16T14:19:28.400Z,56.81
2022-09-16T14:22:06.660Z,56.98
2022-09-16T14:24:36.994Z,54.13
2022-09-16T14:27:06.127Z,53.11
2022-09-16T14:29:38.829Z,51.89
2022-09-16T14:32:14.498Z,50.27
2022-09-16T14:34:41.945Z,50.29
2022-09-16T14:37:17.031Z,49.52
2022-09-16T14:39:50.891Z,52.08
2022-09-16T14:42:27.196Z,52.72
2022-09-16T14:44:56.890Z,53.60
2022-09-16T14:50:52.685Z,52.14
2022-09-16T14:53:36.392Z,51.90
2022-09-16T14:56:09.051Z,50.74
2022-09-16T14:58:39.011Z,50.49
2022-09-16T15:01:12.363Z,48.21
2022-09-16T15:04:04.411Z,49.45
2022-09-16T15:06:37.536Z,50.28
2022-09-16T15:09:19.943Z,49.38
2022-09-16T15:11:53.062Z,51.12
2022-09-16T15:14:23.777Z,50.52
2022-09-16T15:16:55.837Z,51.55
2022-09-16T15:19:45.106Z,51.34
2022-09-16T15:22:15.571Z,49.06
2022-09-16T15:24:44.265Z,50.14
2022-09-16T15:27:11.654Z,48.62
2022-09-16T15:32:44.450Z,48.38
2022-09-16T15:35:26.196Z,49.75
2022-09-16T15:37:54.838Z,49.26
2022-09-16T15:40:26.645Z,49.92
2022-09-16T15:43:22.107Z,51.60
2022-09-16T15:46:16.465Z,52.22
2022-09-16T15:48:56.232Z,52.90
2022-09-16T15:51:36.661Z,53.39
2022-09-16T15:54:22.990Z,52.07
2022-09-16T15:57:22.717Z,54.18
2022-09-16T15:59:55.266Z,56.35
2022-09-16T16:02:35.303Z,55.45
2022-09-16T16:05:13.312Z,58.81
2022-09-16T16:07:54.198Z,56.77
2022-09-16T16:10:27.042Z,60.42
2022-09-16T16:13:00.552Z,61.29
2022-09-16T16:15:41.073Z,61.51
2022-09-16T16:18:12.178Z,61.96
2022-09-16T16:22:21.780Z,62.59
2022-09-16T16:23:38.162Z,62.43
2022-09-16T16:26:10.609Z,62.44
2022-09-16T16:28:40.520Z,62.59
2022-09-16T16:31:13.915Z,62.89
2022-09-16T16:33:55.301Z,62.34
2022-09-16T16:36:23.023Z,62.30
2022-09-16T16:38:51.675Z,62.36
2022-09-16T16:41:24.055Z,62.72
2022-09-16T16:43:52.029Z,62.29
2022-09-16T16:46:19.545Z,61.99
2022-09-16T16:48:47.754Z,61.85
2022-09-16T16:51:15.094Z,61.77
2022-09-16T16:53:42.465Z,61.84
2022-09-16T16:56:15.210Z,61.19
2022-09-16T16:58:46.078Z,61.29
2022-09-16T17:01:16.573Z,61.72
2022-09-16T17:03:46.546Z,60.55
2022-09-16T17:06:14.352Z,59.20
2022-09-16T17:08:41.993Z,56.67
2022-09-16T17:11:14.975Z,57.08
2022-09-16T17:13:45.633Z,58.41
2022-09-16T17:16:16.223Z,60.46
2022-09-16T17:18:44.152Z,59.86
2022-09-16T17:21:17.464Z,61.36
2022-09-16T17:23:45.574Z,62.34
2022-09-16T17:26:14.174Z,61.97
2022-09-16T17:28:44.103Z,60.75
2022-09-16T17:31:15.287Z,61.23
2022-09-16T17:33:43.953Z,60.18
2022-09-16T17:36:13.836Z,59.00
2022-09-16T17:38:41.624Z,57.65
2022-09-16T17:41:14.332Z,58.31
2022-09-16T17:43:42.977Z,57.67
2022-09-16T17:46:16.219Z,58.52
2022-09-16T17:48:44.151Z,58.49
2022-09-16T17:51:14.749Z,58.69
2022-09-16T17:53:42.055Z,59.04
2022-09-16T17:56:13.587Z,58.96
2022-09-16T17:58:44.767Z,58.64
2022-09-16T18:01:16.799Z,59.45
2022-09-16T18:03:46.512Z,59.50
2022-09-16T18:06:17.403Z,59.59
2022-09-16T18:08:45.680Z,59.63
2022-09-16T18:11:15.152Z,60.02
2022-09-16T18:13:43.066Z,60.38
2022-09-16T18:16:17.077Z,60.89
2022-09-16T18:18:45.811Z,61.44
2022-09-16T18:21:15.534Z,62.04
2022-09-16T18:23:48.901Z,63.18
2022-09-16T18:26:17.431Z,64.21
2022-09-16T18:29:08.516Z,64.97
2022-09-16T18:31:35.178Z,65.57
2022-09-16T18:34:02.493Z,66.72
2022-09-16T18:36:30.515Z,67.34
2022-09-16T18:38:59.519Z,67.79
2022-09-16T18:41:30.258Z,68.38
2022-09-16T18:44:05.377Z,68.47
2022-09-16T18:46:38.048Z,68.72
2022-09-16T18:49:06.507Z,69.37
2022-09-16T18:51:36.641Z,69.83
2022-09-16T18:54:16.407Z,70.20
2022-09-16T18:56:43.938Z,70.83
2022-09-16T18:59:22.642Z,71.34
2022-09-16T19:01:56.846Z,70.88
2022-09-16T19:04:30.439Z,70.41
2022-09-16T19:07:06.258Z,70.01
2022-09-16T19:09:36.520Z,69.71
2022-09-16T19:12:05.572Z,69.90
2022-09-16T19:14:33.010Z,69.77
2022-09-16T19:17:07.799Z,69.60
2022-09-16T19:19:35.554Z,69.26
2022-09-16T19:22:06.181Z,68.82
2022-09-16T19:24:34.411Z,68.70
2022-09-16T19:27:01.882Z,69.10
2022-09-16T19:29:29.230Z,68.97
2022-09-16T19:31:57.711Z,68.84
2022-09-16T19:34:25.051Z,68.58
2022-09-16T19:36:52.775Z,68.29
2022-09-16T19:39:21.441Z,68.77
2022-09-16T19:41:48.983Z,68.60
2022-09-16T19:44:17.908Z,67.91
2022-09-16T19:46:49.615Z,67.28
2022-09-16T19:49:21.086Z,66.88
2022-09-16T19:51:49.588Z,66.59
2022-09-16T19:54:17.273Z,65.86
2022-09-16T19:56:49.486Z,66.32
2022-09-16T19:59:18.179Z,66.30
2022-09-16T20:01:45.531Z,66.48
2022-09-16T20:04:13.050Z,66.46
2022-09-16T20:06:42.271Z,66.66
2022-09-16T20:09:12.535Z,66.21
2022-09-16T20:11:43.909Z,65.68
2022-09-16T20:14:19.190Z,66.06
2022-09-16T20:16:47.003Z,65.65
2022-09-16T20:19:16.429Z,64.95
2022-09-16T20:21:44.733Z,65.22
2022-09-16T20:24:22.029Z,65.60
2022-09-16T20:26:51.653Z,65.78
2022-09-16T20:29:20.363Z,66.33
2022-09-16T20:31:49.435Z,66.32
2022-09-16T20:34:17.256Z,66.52
2022-09-16T20:36:46.146Z,68.57
2022-09-16T20:39:14.801Z,70.82
2022-09-16T20:41:45.841Z,71.45
2022-09-16T20:44:14.977Z,71.67
2022-09-16T20:46:42.433Z,72.10
2022-09-16T20:49:16.084Z,72.12
2022-09-16T20:51:43.918Z,72.32
2022-09-16T20:54:14.060Z,72.96
2022-09-16T20:56:43.724Z,72.76
2022-09-16T20:59:15.229Z,73.24
2022-09-16T21:01:42.832Z,72.71
2022-09-16T21:04:15.767Z,72.35
2022-09-16T21:06:43.432Z,72.05
2022-09-16T21:09:13.544Z,72.17
2022-09-16T21:11:44.926Z,72.04
2022-09-16T21:14:15.509Z,71.87
2022-09-16T21:16:44.023Z,71.78
2022-09-16T21:19:13.771Z,71.24
2022-09-16T21:21:44.591Z,71.07
2022-09-16T21:24:13.386Z,70.82
2022-09-16T21:26:41.679Z,70.61
2022-09-16T21:29:11.826Z,69.27
2022-09-16T21:31:41.452Z,68.18
2022-09-16T21:34:17.106Z,68.74
2022-09-16T21:36:45.274Z,68.24
2022-09-16T21:39:17.601Z,69.00
2022-09-16T21:41:46.330Z,67.34
2022-09-16T21:44:21.268Z,66.07
2022-09-16T21:46:51.109Z,67.07
2022-09-16T21:49:30.520Z,65.46
2022-09-16T21:51:59.008Z,64.50
2022-09-16T21:54:28.286Z,64.90
2022-09-16T21:56:55.736Z,64.57
2022-09-16T21:59:23.213Z,65.03
2022-09-16T22:01:51.879Z,64.96
2022-09-16T22:04:22.056Z,63.71
2022-09-16T22:06:51.092Z,64.09
2022-09-16T22:09:18.868Z,64.18
2022-09-16T22:11:46.418Z,64.98
2022-09-16T22:14:14.216Z,64.99
2022-09-16T22:16:41.744Z,65.03
2022-09-16T22:19:14.872Z,64.57
2022-09-16T22:21:45.348Z,64.99
2022-09-16T22:24:13.928Z,64.92
2022-09-16T22:26:41.722Z,64.78
2022-09-16T22:29:10.816Z,65.08
2022-09-16T22:31:41.587Z,65.23
2022-09-16T22:34:09.663Z,64.49
2022-09-16T22:36:37.980Z,64.49
2022-09-16T22:39:11.531Z,64.69
2022-09-16T22:41:39.204Z,64.35
2022-09-16T22:44:07.074Z,64.80
2022-09-16T22:46:39.349Z,65.08
2022-09-16T22:49:06.737Z,65.00
2022-09-16T22:51:34.182Z,64.50
2022-09-16T22:54:05.304Z,64.33
2022-09-16T22:56:33.814Z,64.18
2022-09-16T22:59:03.246Z,64.07
2022-09-16T23:01:37.700Z,64.14
2022-09-16T23:04:06.768Z,64.23
2022-09-16T23:06:34.974Z,64.21
2022-09-16T23:09:02.907Z,64.18
2022-09-16T23:11:33.397Z,64.48
2022-09-16T23:14:01.576Z,64.75
2022-09-16T23:16:32.019Z,65.22
2022-09-16T23:19:03.572Z,65.45
2022-09-16T23:21:35.824Z,65.72
2022-09-16T23:24:07.118Z,64.87
2022-09-16T23:26:37.500Z,65.34
2022-09-16T23:29:08.506Z,65.99
2022-09-16T23:31:40.545Z,65.32
2022-09-16T23:34:19.956Z,65.81
2022-09-16T23:36:48.402Z,65.77
2022-09-16T23:39:17.073Z,65.29
2022-09-16T23:41:45.358Z,65.01
2022-09-16T23:44:14.590Z,65.49
2022-09-16T23:46:42.214Z,65.41
2022-09-16T23:49:10.447Z,65.68
2022-09-16T23:51:37.811Z,66.01
2022-09-16T23:54:05.521Z,66.16
2022-09-16T23:56:33.029Z,66.15
2022-09-16T23:59:01.076Z,65.78
